Univ of Pittsburgh, Pennsylvania
Current Conditions -  °F | °C
As of 11:53 PM on Friday 28 Nov 2014 (Local Time) from KAGC Reporting Station
Overcast Overcast  
Wind Chill: 19°   Ceiling: 7000
Heat Index: 27°   Visibility: 10mi
Dew Point: 16°   Wind: 8mph
Humidity: 63%   Direction: 160°SSE
Pressure: 30.16"   Gusts: NA
Location:  40.4441°N, 79.9544°W
Report Text: KAGC 290453Z 16007KT 10SM OVC070 M03/M09 A3016 RMK AO2 SLP236 T10281089 410171044
Loading
Personal Weather Stations






























Interactive Weather Map New forecast layout! Learn more

10-Day Weather Forecast

Advertisements
Track Severe Weather on mobile